Time;durP1;ratioP1;P1;durP2;ratioP2;P2;SDS_P1;SDS_P2;PMS_P1;PMS_P2;Temp;Humidity;BMP_temperature;BMP_pressure;BME280_temperature;BME280_humidity;BME280_pressure;Samples;Min_cycle;Max_cycle;Signal;HPM_P1;HPM_P2
2022/05/25 00:00:36;;;;;;;;;;;21.70;55.00;;;;;;466199;255;2191;-39
2022/05/25 00:02:36;;;;;;;;;;;21.70;55.10;;;;;;467642;254;2134;-39
2022/05/25 00:04:37;;;;;;;;;;;21.60;55.10;;;;;;465939;255;1211;-39
2022/05/25 00:06:39;;;;;;;;;;;21.70;55.10;;;;;;467981;254;1174;-39
2022/05/25 00:08:40;;;;;;;;;;;21.70;55.00;;;;;;465942;255;1923;-39
2022/05/25 00:10:42;;;;;;;;;;;21.70;55.00;;;;;;468047;254;1271;-39
2022/05/25 00:12:43;;;;;;;;;;;21.70;55.00;;;;;;466167;255;1207;-39
2022/05/25 00:14:44;;;;;;;;;;;21.70;55.10;;;;;;467642;254;1220;-39
2022/05/25 00:16:46;;;;;;;;;;;21.60;55.00;;;;;;465882;255;1252;-39
2022/05/25 00:21:06;;;;;;;;;;;21.60;55.10;;;;;;465700;255;2126;-39
2022/05/25 00:23:07;;;;;;;;;;;21.70;55.00;;;;;;467783;254;1341;-39
2022/05/25 00:25:09;;;;;;;;;;;21.60;55.10;;;;;;465780;255;1267;-39
2022/05/25 00:27:10;;;;;;;;;;;21.70;55.10;;;;;;467689;254;1264;-39
2022/05/25 00:29:12;;;;;;;;;;;21.70;55.10;;;;;;465860;255;1354;-39
2022/05/25 00:31:14;;;;;;;;;;;21.60;55.00;;;;;;467995;254;1248;-39
2022/05/25 00:33:14;;;;;;;;;;;21.60;55.00;;;;;;465806;256;1600;-39
2022/05/25 00:35:16;;;;;;;;;;;21.60;55.00;;;;;;467604;255;1198;-39
2022/05/25 00:37:17;;;;;;;;;;;21.70;55.00;;;;;;465728;255;1536;-39
2022/05/25 00:39:18;;;;;;;;;;;21.70;55.00;;;;;;467654;255;1329;-39
2022/05/25 00:41:19;;;;;;;;;;;21.70;55.00;;;;;;466091;255;2131;-39
2022/05/25 00:43:21;;;;;;;;;;;21.60;55.10;;;;;;467687;255;1155;-39
2022/05/25 00:45:22;;;;;;;;;;;21.60;55.10;;;;;;465791;255;1068;-39
2022/05/25 00:47:23;;;;;;;;;;;21.60;55.10;;;;;;467819;254;1157;-39
2022/05/25 00:49:25;;;;;;;;;;;21.60;55.20;;;;;;465729;255;1203;-39
2022/05/25 00:51:26;;;;;;;;;;;21.60;55.10;;;;;;467946;254;1208;-39
2022/05/25 00:53:27;;;;;;;;;;;21.60;55.20;;;;;;466084;255;1341;-39
2022/05/25 00:55:29;;;;;;;;;;;21.60;55.20;;;;;;467720;254;1168;-39
2022/05/25 00:57:30;;;;;;;;;;;21.60;55.10;;;;;;465748;255;1383;-39
2022/05/25 00:59:31;;;;;;;;;;;21.70;55.10;;;;;;467786;254;1339;-39
2022/05/25 01:01:33;;;;;;;;;;;21.60;55.00;;;;;;465831;255;2862;-39
2022/05/25 01:03:34;;;;;;;;;;;21.60;55.00;;;;;;467931;254;1272;-39
2022/05/25 01:05:35;;;;;;;;;;;21.70;55.00;;;;;;465764;255;1242;-39
2022/05/25 01:07:37;;;;;;;;;;;21.70;55.00;;;;;;467931;254;1163;-39
2022/05/25 01:09:38;;;;;;;;;;;21.70;55.00;;;;;;466002;255;1259;-39
2022/05/25 01:11:39;;;;;;;;;;;21.70;55.00;;;;;;468060;254;1336;-39
2022/05/25 01:13:41;;;;;;;;;;;21.70;55.00;;;;;;465878;255;1349;-39
2022/05/25 01:15:42;;;;;;;;;;;21.70;54.90;;;;;;467619;255;1192;-39
2022/05/25 01:17:43;;;;;;;;;;;21.60;55.00;;;;;;465938;255;1249;-39
2022/05/25 01:19:44;;;;;;;;;;;21.60;55.10;;;;;;467854;254;1346;-39
2022/05/25 01:21:46;;;;;;;;;;;21.60;55.10;;;;;;466125;255;2122;-39
2022/05/25 01:23:47;;;;;;;;;;;21.60;55.00;;;;;;467622;255;1104;-39
2022/05/25 01:25:48;;;;;;;;;;;21.70;55.00;;;;;;465774;255;1257;-39
2022/05/25 01:27:50;;;;;;;;;;;21.70;54.90;;;;;;467585;255;1087;-39
2022/05/25 01:29:51;;;;;;;;;;;21.70;54.80;;;;;;465927;256;1055;-39
2022/05/25 01:31:52;;;;;;;;;;;21.60;55.00;;;;;;467636;255;1313;-39
2022/05/25 01:33:54;;;;;;;;;;;21.60;55.10;;;;;;466152;255;1246;-39
2022/05/25 01:35:56;;;;;;;;;;;21.60;55.10;;;;;;467653;255;1354;-39
2022/05/25 01:37:57;;;;;;;;;;;21.60;55.00;;;;;;466025;256;1523;-39
2022/05/25 01:39:58;;;;;;;;;;;21.60;55.00;;;;;;468025;254;1273;-39
2022/05/25 01:41:59;;;;;;;;;;;21.60;55.10;;;;;;465918;255;2130;-39
2022/05/25 01:44:01;;;;;;;;;;;21.60;55.00;;;;;;467967;254;1161;-39
2022/05/25 01:46:03;;;;;;;;;;;21.60;55.10;;;;;;465788;255;1302;-39
2022/05/25 01:48:04;;;;;;;;;;;21.60;55.10;;;;;;467590;255;1602;-39
2022/05/25 01:50:05;;;;;;;;;;;21.60;55.00;;;;;;466093;255;1275;-39
2022/05/25 01:52:07;;;;;;;;;;;21.60;55.10;;;;;;467730;254;1385;-39
2022/05/25 01:54:08;;;;;;;;;;;21.70;55.00;;;;;;466034;255;1234;-39
2022/05/25 01:56:09;;;;;;;;;;;21.70;55.00;;;;;;467854;254;1166;-39
2022/05/25 01:58:11;;;;;;;;;;;21.70;54.90;;;;;;465809;255;1204;-39
2022/05/25 02:00:12;;;;;;;;;;;21.70;55.00;;;;;;468066;254;2137;-39
2022/05/25 02:04:33;;;;;;;;;;;21.60;55.10;;;;;;467693;254;1247;-39
2022/05/25 02:06:34;;;;;;;;;;;21.60;55.00;;;;;;465821;255;1273;-39
2022/05/25 02:08:35;;;;;;;;;;;21.60;55.00;;;;;;468062;254;1630;-39
2022/05/25 02:10:37;;;;;;;;;;;21.60;55.00;;;;;;466029;254;1294;-39
2022/05/25 02:12:38;;;;;;;;;;;21.70;55.00;;;;;;468047;254;1176;-39
2022/05/25 02:14:39;;;;;;;;;;;21.70;55.10;;;;;;466237;255;1268;-39
2022/05/25 02:16:41;;;;;;;;;;;21.70;55.00;;;;;;468079;254;1357;-39
2022/05/25 02:18:42;;;;;;;;;;;21.70;55.00;;;;;;466142;255;1175;-39
2022/05/25 02:20:43;;;;;;;;;;;21.70;54.80;;;;;;467465;255;2200;-39
2022/05/25 02:22:45;;;;;;;;;;;21.70;54.90;;;;;;465976;255;1700;-39
2022/05/25 02:24:46;;;;;;;;;;;21.60;54.90;;;;;;467865;254;1244;-39
2022/05/25 02:26:47;;;;;;;;;;;21.60;55.10;;;;;;465753;255;1292;-39
2022/05/25 02:28:48;;;;;;;;;;;21.60;55.00;;;;;;468037;254;1253;-39
2022/05/25 02:30:50;;;;;;;;;;;21.60;55.00;;;;;;466225;255;1378;-39
2022/05/25 02:32:51;;;;;;;;;;;21.70;55.00;;;;;;467896;254;1531;-39
2022/05/25 02:34:52;;;;;;;;;;;21.70;55.00;;;;;;466277;255;1281;-39
2022/05/25 02:36:54;;;;;;;;;;;21.60;54.90;;;;;;467647;255;1225;-39
2022/05/25 02:38:55;;;;;;;;;;;21.70;55.10;;;;;;466059;255;1275;-39
2022/05/25 02:40:56;;;;;;;;;;;21.60;55.00;;;;;;467963;254;2192;-39
2022/05/25 02:42:58;;;;;;;;;;;21.70;55.10;;;;;;466200;255;1179;-39
2022/05/25 02:44:59;;;;;;;;;;;21.60;55.00;;;;;;467629;255;1415;-39
2022/05/25 02:47:00;;;;;;;;;;;21.60;55.00;;;;;;465769;255;1265;-39
2022/05/25 02:49:02;;;;;;;;;;;21.70;55.10;;;;;;467679;254;1262;-39
2022/05/25 02:51:03;;;;;;;;;;;21.60;55.00;;;;;;465943;255;1220;-39
2022/05/25 02:53:05;;;;;;;;;;;21.60;55.00;;;;;;468093;254;1152;-39
2022/05/25 02:55:06;;;;;;;;;;;21.70;55.10;;;;;;466113;255;1221;-39
2022/05/25 02:57:07;;;;;;;;;;;21.60;55.00;;;;;;467930;254;1238;-39
2022/05/25 02:59:09;;;;;;;;;;;21.70;55.00;;;;;;465974;255;1298;-39
2022/05/25 03:01:10;;;;;;;;;;;21.70;54.90;;;;;;467621;255;2149;-39
2022/05/25 03:03:12;;;;;;;;;;;21.70;55.00;;;;;;466127;255;1233;-39
2022/05/25 03:05:13;;;;;;;;;;;21.70;55.00;;;;;;467634;254;2186;-39
2022/05/25 03:07:14;;;;;;;;;;;21.60;55.00;;;;;;465707;255;1280;-39
2022/05/25 03:09:16;;;;;;;;;;;21.60;55.10;;;;;;467871;254;1276;-39
2022/05/25 03:11:17;;;;;;;;;;;21.70;55.00;;;;;;465846;255;1222;-39
2022/05/25 03:13:18;;;;;;;;;;;21.60;55.00;;;;;;467954;254;1358;-39
2022/05/25 03:15:21;;;;;;;;;;;21.60;55.00;;;;;;466220;255;1211;-39
2022/05/25 03:17:21;;;;;;;;;;;21.60;55.00;;;;;;467578;255;1953;-39
2022/05/25 03:19:22;;;;;;;;;;;21.60;55.00;;;;;;466101;255;1296;-39
2022/05/25 03:21:25;;;;;;;;;;;21.60;55.00;;;;;;467613;254;2199;-39
2022/05/25 03:23:25;;;;;;;;;;;21.70;54.90;;;;;;465722;256;2411;-39
2022/05/25 03:25:26;;;;;;;;;;;21.70;54.90;;;;;;467590;255;1268;-39
2022/05/25 03:27:27;;;;;;;;;;;21.70;55.00;;;;;;465866;255;1531;-39
2022/05/25 03:29:30;;;;;;;;;;;21.60;54.90;;;;;;468014;254;1223;-39
2022/05/25 03:31:30;;;;;;;;;;;21.60;55.10;;;;;;465920;256;2087;-39
2022/05/25 03:33:31;;;;;;;;;;;21.60;55.10;;;;;;467655;255;1232;-39
2022/05/25 03:35:33;;;;;;;;;;;21.60;55.00;;;;;;466147;255;1224;-39
2022/05/25 03:37:34;;;;;;;;;;;21.60;54.90;;;;;;467760;254;1278;-39
2022/05/25 03:39:36;;;;;;;;;;;21.70;55.00;;;;;;465893;255;1179;-39
2022/05/25 03:41:37;;;;;;;;;;;21.60;55.00;;;;;;468065;254;2129;-39
2022/05/25 03:43:38;;;;;;;;;;;21.60;55.20;;;;;;465994;255;1189;-39
2022/05/25 03:45:40;;;;;;;;;;;21.60;55.10;;;;;;468099;254;1270;-39
2022/05/25 03:47:41;;;;;;;;;;;21.60;55.10;;;;;;465964;255;1215;-39
2022/05/25 03:49:42;;;;;;;;;;;21.60;55.20;;;;;;467686;255;1225;-39
2022/05/25 03:51:44;;;;;;;;;;;21.60;55.00;;;;;;465688;255;1213;-39
2022/05/25 03:53:45;;;;;;;;;;;21.60;55.00;;;;;;467669;254;1219;-39
2022/05/25 03:55:47;;;;;;;;;;;21.60;55.00;;;;;;466150;255;1321;-39
2022/05/25 03:57:48;;;;;;;;;;;21.60;55.00;;;;;;467886;254;1167;-39
2022/05/25 03:59:49;;;;;;;;;;;21.60;55.00;;;;;;466199;255;1337;-39
2022/05/25 04:01:50;;;;;;;;;;;21.70;55.00;;;;;;467516;253;2228;-39
2022/05/25 04:03:52;;;;;;;;;;;21.60;55.00;;;;;;465932;255;1039;-39
2022/05/25 04:05:53;;;;;;;;;;;21.60;55.10;;;;;;468025;254;1247;-39
2022/05/25 04:07:55;;;;;;;;;;;21.60;55.10;;;;;;465894;255;1230;-39
2022/05/25 04:09:56;;;;;;;;;;;21.60;55.00;;;;;;467813;254;1099;-39
2022/05/25 04:11:57;;;;;;;;;;;21.60;55.00;;;;;;465683;255;2254;-39
2022/05/25 04:13:59;;;;;;;;;;;21.60;55.00;;;;;;467790;254;1288;-39
2022/05/25 04:16:00;;;;;;;;;;;21.60;54.90;;;;;;465683;255;2175;-39
2022/05/25 04:18:01;;;;;;;;;;;21.70;55.00;;;;;;467853;254;1163;-39
2022/05/25 04:20:02;;;;;;;;;;;21.60;54.90;;;;;;465960;255;1256;-39
2022/05/25 04:22:04;;;;;;;;;;;21.70;55.00;;;;;;467524;254;2124;-39
2022/05/25 04:24:05;;;;;;;;;;;21.70;55.00;;;;;;466107;255;1269;-39
2022/05/25 04:26:06;;;;;;;;;;;21.70;54.90;;;;;;467510;254;1290;-39
2022/05/25 04:28:08;;;;;;;;;;;21.70;55.00;;;;;;465654;255;1333;-39
2022/05/25 04:30:09;;;;;;;;;;;21.70;54.90;;;;;;467924;254;1233;-39
2022/05/25 04:32:10;;;;;;;;;;;21.70;55.00;;;;;;465623;255;1276;-39
2022/05/25 04:34:13;;;;;;;;;;;21.60;55.00;;;;;;467685;254;1226;-39
2022/05/25 04:36:13;;;;;;;;;;;21.70;54.90;;;;;;465439;256;1895;-39
2022/05/25 04:38:14;;;;;;;;;;;21.70;54.90;;;;;;467452;255;1178;-39
2022/05/25 04:40:16;;;;;;;;;;;21.70;55.00;;;;;;465814;255;1253;-39
2022/05/25 04:42:17;;;;;;;;;;;21.60;55.00;;;;;;467470;254;2125;-39
2022/05/25 04:44:18;;;;;;;;;;;21.60;55.00;;;;;;465647;255;1247;-39
2022/05/25 04:46:20;;;;;;;;;;;21.60;55.00;;;;;;467708;254;1362;-39
2022/05/25 04:48:23;;;;;;;;;;;21.60;55.00;;;;;;466028;255;1225;-39
2022/05/25 04:50:23;;;;;;;;;;;21.70;55.10;;;;;;467540;255;2276;-39
2022/05/25 04:52:24;;;;;;;;;;;21.70;55.00;;;;;;465625;255;1204;-39
2022/05/25 04:54:25;;;;;;;;;;;21.60;55.10;;;;;;467730;254;1205;-39
2022/05/25 04:58:46;;;;;;;;;;;21.60;55.00;;;;;;467669;254;1244;-39
2022/05/25 05:00:47;;;;;;;;;;;21.70;55.00;;;;;;465737;255;1242;-39
2022/05/25 05:02:49;;;;;;;;;;;21.70;54.90;;;;;;467327;255;2212;-39
2022/05/25 05:04:50;;;;;;;;;;;21.70;55.00;;;;;;465587;255;1210;-39
2022/05/25 05:06:52;;;;;;;;;;;21.70;55.00;;;;;;467355;255;1252;-39
2022/05/25 05:08:53;;;;;;;;;;;21.70;55.00;;;;;;465628;255;1198;-39
2022/05/25 05:10:54;;;;;;;;;;;21.70;55.00;;;;;;467692;254;1448;-39
2022/05/25 05:12:56;;;;;;;;;;;21.60;55.00;;;;;;465554;255;1604;-39
2022/05/25 05:14:57;;;;;;;;;;;21.70;54.90;;;;;;467268;255;1253;-39
2022/05/25 05:16:58;;;;;;;;;;;21.70;54.90;;;;;;465645;255;1480;-39
2022/05/25 05:19:00;;;;;;;;;;;21.60;55.00;;;;;;467363;255;1176;-39
2022/05/25 05:21:01;;;;;;;;;;;21.70;55.00;;;;;;465393;255;1468;-39
2022/05/25 05:23:02;;;;;;;;;;;21.60;55.00;;;;;;467605;254;2205;-39
2022/05/25 05:25:04;;;;;;;;;;;21.60;55.00;;;;;;465666;254;1175;-39
2022/05/25 05:27:06;;;;;;;;;;;21.70;55.00;;;;;;467412;254;1519;-39
2022/05/25 05:29:07;;;;;;;;;;;21.70;55.00;;;;;;465583;255;1167;-39
2022/05/25 05:31:08;;;;;;;;;;;21.60;55.00;;;;;;467338;255;1280;-39
2022/05/25 05:33:10;;;;;;;;;;;21.70;55.00;;;;;;465658;255;1243;-39
2022/05/25 05:35:11;;;;;;;;;;;21.60;55.10;;;;;;467381;254;1175;-39
2022/05/25 05:37:12;;;;;;;;;;;21.60;55.20;;;;;;465572;255;1304;-39
2022/05/25 05:39:14;;;;;;;;;;;21.60;55.10;;;;;;467356;254;1247;-39
2022/05/25 05:41:15;;;;;;;;;;;21.70;55.00;;;;;;465477;255;1220;-39
2022/05/25 05:43:16;;;;;;;;;;;21.60;55.00;;;;;;467356;254;2208;-39
2022/05/25 05:45:18;;;;;;;;;;;21.60;55.00;;;;;;465451;255;1183;-39
2022/05/25 05:47:19;;;;;;;;;;;21.60;55.00;;;;;;467431;254;1613;-39
2022/05/25 05:49:20;;;;;;;;;;;21.60;55.00;;;;;;465401;255;1234;-39
2022/05/25 05:51:22;;;;;;;;;;;21.70;55.10;;;;;;467230;254;1198;-39
2022/05/25 05:53:23;;;;;;;;;;;21.70;54.90;;;;;;465395;255;1253;-39
2022/05/25 05:55:24;;;;;;;;;;;21.70;54.90;;;;;;467220;254;1182;-39
2022/05/25 05:57:25;;;;;;;;;;;21.70;55.00;;;;;;465206;255;1212;-39
2022/05/25 05:59:27;;;;;;;;;;;21.60;54.90;;;;;;467312;254;1291;-39
2022/05/25 06:01:28;;;;;;;;;;;21.70;55.00;;;;;;465403;255;1165;-39
2022/05/25 06:03:29;;;;;;;;;;;21.60;55.00;;;;;;467298;254;2208;-39
2022/05/25 06:05:31;;;;;;;;;;;21.70;55.00;;;;;;465296;255;1225;-39
2022/05/25 06:07:32;;;;;;;;;;;21.60;55.00;;;;;;467247;254;1349;-39
2022/05/25 06:09:33;;;;;;;;;;;21.60;55.00;;;;;;465391;255;1390;-39
2022/05/25 06:11:35;;;;;;;;;;;21.60;54.90;;;;;;467193;255;1188;-39
2022/05/25 06:13:36;;;;;;;;;;;21.60;55.10;;;;;;465328;255;1273;-39
2022/05/25 06:20:16;;;;;;;;;;;21.60;55.00;;;;;;467089;254;1125;-39
2022/05/25 06:22:18;;;;;;;;;;;21.70;55.00;;;;;;465286;255;2209;-39
2022/05/25 06:24:19;;;;;;;;;;;21.70;54.90;;;;;;467286;254;2042;-39
2022/05/25 06:26:20;;;;;;;;;;;21.60;54.90;;;;;;465295;255;1207;-39
2022/05/25 06:28:21;;;;;;;;;;;21.60;55.00;;;;;;467354;254;1319;-39
2022/05/25 06:30:24;;;;;;;;;;;21.60;55.00;;;;;;465258;255;1281;-39
2022/05/25 06:32:24;;;;;;;;;;;21.50;55.10;;;;;;466995;255;2843;-39
2022/05/25 06:34:25;;;;;;;;;;;21.60;55.20;;;;;;465318;255;1228;-39
2022/05/25 06:36:27;;;;;;;;;;;21.60;55.10;;;;;;467032;255;1164;-39
2022/05/25 06:38:28;;;;;;;;;;;21.60;55.10;;;;;;465271;255;1401;-39
2022/05/25 06:40:29;;;;;;;;;;;21.60;55.10;;;;;;467230;254;1319;-39
2022/05/25 06:42:31;;;;;;;;;;;21.60;55.20;;;;;;465286;255;2209;-39
2022/05/25 06:44:32;;;;;;;;;;;21.60;55.20;;;;;;467256;254;1229;-39
2022/05/25 06:46:33;;;;;;;;;;;21.60;55.20;;;;;;465232;255;1248;-39
2022/05/25 06:48:34;;;;;;;;;;;21.60;55.10;;;;;;467173;253;1292;-39
2022/05/25 06:50:36;;;;;;;;;;;21.70;55.10;;;;;;465164;255;1278;-39
2022/05/25 06:52:37;;;;;;;;;;;21.70;55.10;;;;;;467042;254;1227;-39
2022/05/25 06:54:38;;;;;;;;;;;21.60;55.00;;;;;;465248;255;1242;-39
2022/05/25 06:56:40;;;;;;;;;;;21.60;55.10;;;;;;466787;254;1248;-39
2022/05/25 06:58:41;;;;;;;;;;;21.60;55.20;;;;;;464945;255;1449;-39
2022/05/25 07:00:42;;;;;;;;;;;21.70;55.10;;;;;;466646;254;1089;-39
2022/05/25 07:02:44;;;;;;;;;;;21.60;55.00;;;;;;464730;255;2339;-39
2022/05/25 07:04:45;;;;;;;;;;;21.70;55.00;;;;;;466558;255;1429;-39
2022/05/25 07:06:47;;;;;;;;;;;21.70;55.00;;;;;;464726;255;1320;-39
2022/05/25 07:08:48;;;;;;;;;;;21.60;55.00;;;;;;466243;255;1226;-39
2022/05/25 07:10:49;;;;;;;;;;;21.60;55.00;;;;;;464407;255;1393;-39
2022/05/25 07:12:51;;;;;;;;;;;21.60;55.10;;;;;;466299;254;1273;-39
2022/05/25 07:14:52;;;;;;;;;;;21.60;55.00;;;;;;464627;255;1295;-39
2022/05/25 07:16:55;;;;;;;;;;;21.60;55.10;;;;;;466757;254;1193;-39
2022/05/25 07:18:55;;;;;;;;;;;21.60;55.00;;;;;;464951;255;2235;-39
2022/05/25 07:20:56;;;;;;;;;;;21.70;55.10;;;;;;467207;254;1185;-39
2022/05/25 07:22:58;;;;;;;;;;;21.60;55.10;;;;;;464955;255;2201;-39
2022/05/25 07:24:59;;;;;;;;;;;21.60;55.20;;;;;;466622;254;1493;-39
2022/05/25 07:27:00;;;;;;;;;;;21.60;55.10;;;;;;464825;255;1275;-39
2022/05/25 07:29:02;;;;;;;;;;;21.70;55.10;;;;;;466510;254;1299;-39
2022/05/25 07:31:03;;;;;;;;;;;21.70;55.00;;;;;;464821;255;1354;-39
2022/05/25 07:33:06;;;;;;;;;;;21.60;55.00;;;;;;466560;253;1199;-39
2022/05/25 07:35:06;;;;;;;;;;;21.70;55.10;;;;;;464645;256;1656;-39
2022/05/25 07:37:10;;;;;;;;;;;21.70;55.10;;;;;;467027;254;1088;-39
2022/05/25 07:39:11;;;;;;;;;;;21.70;55.00;;;;;;464884;255;2090;-39
2022/05/25 07:41:10;;;;;;;;;;;21.70;55.00;;;;;;467042;255;2226;-39
2022/05/25 07:43:11;;;;;;;;;;;21.70;55.10;;;;;;465351;255;2221;-39
2022/05/25 07:45:13;;;;;;;;;;;21.70;55.00;;;;;;467245;254;1341;-39
2022/05/25 07:47:14;;;;;;;;;;;21.70;55.00;;;;;;465057;255;1403;-39
2022/05/25 07:49:15;;;;;;;;;;;21.70;55.10;;;;;;467108;254;1396;-39
2022/05/25 07:51:17;;;;;;;;;;;21.70;55.00;;;;;;465010;255;1340;-39
2022/05/25 07:55:37;;;;;;;;;;;21.70;55.00;;;;;;464798;255;1132;-39
2022/05/25 07:57:38;;;;;;;;;;;21.70;55.00;;;;;;467004;254;1118;-39
2022/05/25 07:59:40;;;;;;;;;;;21.70;54.90;;;;;;465347;255;1220;-39
2022/05/25 08:06:30;;;;;;;;;;;21.70;55.00;;;;;;464910;256;1751;-39
2022/05/25 08:08:31;;;;;;;;;;;21.70;55.00;;;;;;466866;254;1188;-39
2022/05/25 08:10:32;;;;;;;;;;;21.70;55.00;;;;;;464775;255;1367;-39
2022/05/25 08:12:34;;;;;;;;;;;21.70;54.90;;;;;;467088;254;1292;-39
2022/05/25 08:14:35;;;;;;;;;;;21.70;55.00;;;;;;464864;255;1323;-39
2022/05/25 08:16:36;;;;;;;;;;;21.70;55.00;;;;;;466808;254;1219;-39
2022/05/25 08:18:38;;;;;;;;;;;21.70;54.90;;;;;;465001;255;1193;-39
2022/05/25 08:20:39;;;;;;;;;;;21.70;55.00;;;;;;466900;254;1311;-39
2022/05/25 08:22:40;;;;;;;;;;;21.70;55.00;;;;;;464698;255;2197;-39
2022/05/25 08:24:43;;;;;;;;;;;21.70;55.00;;;;;;466499;255;1308;-39
2022/05/25 08:26:43;;;;;;;;;;;21.70;55.00;;;;;;464438;255;2178;-39
2022/05/25 08:28:44;;;;;;;;;;;21.70;55.00;;;;;;466364;255;1048;-39
2022/05/25 08:30:45;;;;;;;;;;;21.70;54.90;;;;;;464685;255;1323;-39
2022/05/25 08:32:47;;;;;;;;;;;21.70;54.90;;;;;;466617;254;1135;-39
2022/05/25 08:34:49;;;;;;;;;;;21.70;55.00;;;;;;464824;255;1295;-39
2022/05/25 08:36:50;;;;;;;;;;;21.70;54.90;;;;;;466605;255;1485;-39
2022/05/25 08:38:53;;;;;;;;;;;21.70;54.90;;;;;;464825;255;1196;-39
2022/05/25 08:40:54;;;;;;;;;;;21.80;54.90;;;;;;466581;255;1270;-39
2022/05/25 08:42:55;;;;;;;;;;;21.70;54.80;;;;;;464610;255;2213;-39
2022/05/25 08:44:56;;;;;;;;;;;21.70;55.00;;;;;;466604;254;1324;-39
2022/05/25 08:46:58;;;;;;;;;;;21.70;54.90;;;;;;464726;255;1394;-39
2022/05/25 08:48:59;;;;;;;;;;;21.70;54.80;;;;;;466746;255;1156;-39
2022/05/25 08:51:00;;;;;;;;;;;21.70;54.90;;;;;;464560;255;1274;-39
2022/05/25 08:53:02;;;;;;;;;;;21.70;54.90;;;;;;466821;254;1039;-39
2022/05/25 08:55:03;;;;;;;;;;;21.70;55.00;;;;;;464794;255;1092;-39
2022/05/25 08:57:04;;;;;;;;;;;21.70;55.00;;;;;;466529;255;1377;-39
2022/05/25 08:59:05;;;;;;;;;;;21.70;55.00;;;;;;464941;255;1055;-39
2022/05/25 09:01:07;;;;;;;;;;;21.70;54.90;;;;;;466257;255;1073;-39
2022/05/25 09:03:08;;;;;;;;;;;21.70;55.00;;;;;;464924;255;2205;-39
2022/05/25 09:05:10;;;;;;;;;;;21.70;55.00;;;;;;466821;254;1228;-39
2022/05/25 09:07:11;;;;;;;;;;;21.70;55.00;;;;;;464959;255;1126;-39
2022/05/25 09:09:12;;;;;;;;;;;21.70;54.90;;;;;;466874;254;1015;-39
2022/05/25 09:11:13;;;;;;;;;;;21.70;55.00;;;;;;464691;255;1167;-39
2022/05/25 09:13:15;;;;;;;;;;;21.70;55.00;;;;;;466426;255;1033;-39
2022/05/25 09:15:16;;;;;;;;;;;21.70;54.90;;;;;;465379;255;1308;-39
2022/05/25 09:17:17;;;;;;;;;;;21.70;55.00;;;;;;466846;255;1197;-39
2022/05/25 09:19:19;;;;;;;;;;;21.70;54.90;;;;;;465404;255;1334;-39
2022/05/25 09:21:20;;;;;;;;;;;21.70;54.90;;;;;;466896;254;1439;-39
2022/05/25 09:23:21;;;;;;;;;;;21.70;55.00;;;;;;464998;255;2201;-39
2022/05/25 09:25:23;;;;;;;;;;;21.70;55.00;;;;;;466971;254;1185;-39
2022/05/25 09:27:24;;;;;;;;;;;21.70;54.90;;;;;;467011;254;1032;-39
2022/05/25 09:29:25;;;;;;;;;;;21.70;54.90;;;;;;466622;254;707;-39
2022/05/25 09:31:27;;;;;;;;;;;21.70;54.90;;;;;;466683;254;1191;-39
2022/05/25 09:33:28;;;;;;;;;;;21.70;55.00;;;;;;466743;254;842;-39
2022/05/25 09:35:29;;;;;;;;;;;21.70;54.90;;;;;;465095;255;1096;-39
2022/05/25 09:37:30;;;;;;;;;;;21.70;55.00;;;;;;466700;255;1134;-39
2022/05/25 09:39:32;;;;;;;;;;;21.70;55.00;;;;;;465409;255;643;-39
2022/05/25 09:41:33;;;;;;;;;;;21.70;54.90;;;;;;466970;254;1314;-39
2022/05/25 09:43:34;;;;;;;;;;;21.70;54.80;;;;;;465528;255;2197;-39
2022/05/25 09:45:36;;;;;;;;;;;21.80;54.80;;;;;;466733;255;1087;-39
2022/05/25 09:47:37;;;;;;;;;;;21.80;54.80;;;;;;465032;255;1138;-39
2022/05/25 09:49:39;;;;;;;;;;;21.70;54.80;;;;;;467463;254;816;-39
2022/05/25 09:51:40;;;;;;;;;;;21.70;54.80;;;;;;465166;255;1349;-39
2022/05/25 09:53:42;;;;;;;;;;;21.70;54.80;;;;;;467029;254;1131;-39
2022/05/25 09:55:43;;;;;;;;;;;21.70;54.80;;;;;;464843;255;1526;-39
2022/05/25 09:57:45;;;;;;;;;;;21.80;54.80;;;;;;466844;254;1201;-39
2022/05/25 09:59:46;;;;;;;;;;;21.80;54.70;;;;;;464967;256;1355;-39
2022/05/25 10:01:48;;;;;;;;;;;21.70;54.70;;;;;;466844;254;1247;-39
2022/05/25 10:03:50;;;;;;;;;;;21.80;54.80;;;;;;464855;255;2360;-39
2022/05/25 10:05:51;;;;;;;;;;;21.70;54.80;;;;;;466886;254;1605;-39
2022/05/25 10:07:52;;;;;;;;;;;21.70;54.80;;;;;;465014;255;1224;-39
2022/05/25 10:09:53;;;;;;;;;;;21.80;54.80;;;;;;466933;254;1439;-39
2022/05/25 10:11:54;;;;;;;;;;;21.80;54.80;;;;;;464931;255;1519;-39
2022/05/25 10:13:56;;;;;;;;;;;21.80;54.80;;;;;;466747;254;1095;-39
2022/05/25 10:15:58;;;;;;;;;;;21.80;54.80;;;;;;464957;254;1489;-39
2022/05/25 10:17:59;;;;;;;;;;;21.80;54.70;;;;;;466751;255;2107;-39
2022/05/25 10:20:00;;;;;;;;;;;21.70;54.70;;;;;;465103;255;1079;-39
2022/05/25 10:22:01;;;;;;;;;;;21.70;54.80;;;;;;466794;254;1294;-39
2022/05/25 10:24:03;;;;;;;;;;;21.70;54.80;;;;;;465052;255;2197;-39
2022/05/25 10:26:04;;;;;;;;;;;21.70;54.80;;;;;;467357;254;1089;-39
2022/05/25 10:28:05;;;;;;;;;;;21.70;54.80;;;;;;465034;255;1361;-39
2022/05/25 10:37:09;;;;;;;;;;;21.70;54.90;;;;;;464902;255;1349;-39
2022/05/25 10:39:10;;;;;;;;;;;21.70;54.80;;;;;;466777;255;1197;-39
2022/05/25 10:43:31;;;;;;;;;;;21.70;54.80;;;;;;466641;254;2129;-39
2022/05/25 10:45:34;;;;;;;;;;;21.70;54.80;;;;;;464910;255;1245;-39
2022/05/25 10:47:34;;;;;;;;;;;21.70;54.80;;;;;;466559;255;2242;-39
2022/05/25 10:49:35;;;;;;;;;;;21.70;54.70;;;;;;465177;255;1320;-39
2022/05/25 10:51:37;;;;;;;;;;;21.70;54.70;;;;;;466484;255;1276;-39
2022/05/25 10:53:38;;;;;;;;;;;21.70;54.70;;;;;;465121;255;1056;-39
2022/05/25 10:55:39;;;;;;;;;;;21.70;54.70;;;;;;466748;255;1319;-39
2022/05/25 10:57:41;;;;;;;;;;;21.70;54.80;;;;;;464728;255;1266;-39
2022/05/25 10:59:42;;;;;;;;;;;21.70;54.70;;;;;;466721;254;1373;-39
2022/05/25 11:01:43;;;;;;;;;;;21.70;54.70;;;;;;464918;255;1249;-39
2022/05/25 11:03:45;;;;;;;;;;;21.70;54.80;;;;;;466660;254;2213;-39
2022/05/25 11:05:46;;;;;;;;;;;21.70;54.80;;;;;;464822;255;1340;-39
2022/05/25 11:07:47;;;;;;;;;;;21.70;54.70;;;;;;466710;254;1189;-39
2022/05/25 11:09:48;;;;;;;;;;;21.70;54.70;;;;;;464783;255;1247;-39
2022/05/25 11:11:50;;;;;;;;;;;21.70;54.60;;;;;;466710;254;1306;-39
2022/05/25 11:13:51;;;;;;;;;;;21.70;54.70;;;;;;464746;255;1220;-39
2022/05/25 11:15:53;;;;;;;;;;;21.70;54.70;;;;;;466436;255;1265;-39
2022/05/25 11:17:55;;;;;;;;;;;21.70;54.60;;;;;;464828;255;1179;-39
2022/05/25 11:19:56;;;;;;;;;;;21.70;54.70;;;;;;466800;254;1229;-39
2022/05/25 11:21:58;;;;;;;;;;;21.70;54.60;;;;;;465040;255;1344;-39
2022/05/25 11:23:59;;;;;;;;;;;21.70;54.60;;;;;;467457;254;2213;-39
2022/05/25 11:26:00;;;;;;;;;;;21.70;54.60;;;;;;464913;255;1332;-39
2022/05/25 11:28:02;;;;;;;;;;;21.70;54.60;;;;;;466800;254;1452;-39
2022/05/25 11:30:03;;;;;;;;;;;21.70;54.60;;;;;;464745;255;1248;-39
2022/05/25 11:32:04;;;;;;;;;;;21.70;54.70;;;;;;466512;255;1425;-39
2022/05/25 11:34:06;;;;;;;;;;;21.80;54.60;;;;;;464761;255;1376;-39
2022/05/25 11:36:07;;;;;;;;;;;21.80;54.50;;;;;;466539;254;1372;-39
2022/05/25 11:38:09;;;;;;;;;;;21.80;54.50;;;;;;465206;255;1055;-39
2022/05/25 11:40:10;;;;;;;;;;;21.80;54.50;;;;;;467258;254;1303;-39
2022/05/25 11:42:12;;;;;;;;;;;21.80;54.60;;;;;;464880;255;1214;-39
2022/05/25 11:44:13;;;;;;;;;;;21.80;54.50;;;;;;466775;254;2196;-39
2022/05/25 11:46:14;;;;;;;;;;;21.80;54.60;;;;;;465110;255;1287;-39
2022/05/25 11:48:16;;;;;;;;;;;21.80;54.60;;;;;;466793;255;1233;-39
2022/05/25 11:50:17;;;;;;;;;;;21.80;54.50;;;;;;465014;255;1134;-39
2022/05/25 11:52:19;;;;;;;;;;;21.80;54.50;;;;;;466870;254;1114;-39
2022/05/25 11:54:20;;;;;;;;;;;21.80;54.30;;;;;;464969;255;1100;-39
2022/05/25 11:56:21;;;;;;;;;;;21.80;54.30;;;;;;466586;254;1131;-39
2022/05/25 11:58:22;;;;;;;;;;;21.80;54.40;;;;;;464782;255;1130;-39
2022/05/25 12:00:26;;;;;;;;;;;21.80;54.40;;;;;;466554;255;1372;-39
2022/05/25 12:02:27;;;;;;;;;;;21.70;54.50;;;;;;464572;256;2176;-39
2022/05/25 12:04:27;;;;;;;;;;;21.80;54.50;;;;;;466601;255;2215;-41
2022/05/25 12:06:28;;;;;;;;;;;21.80;54.40;;;;;;465264;255;1377;-41
2022/05/25 12:08:29;;;;;;;;;;;21.80;54.30;;;;;;466801;254;1059;-41
2022/05/25 12:10:31;;;;;;;;;;;21.80;54.30;;;;;;465186;256;973;-41
2022/05/25 12:12:32;;;;;;;;;;;21.70;54.40;;;;;;466958;254;1433;-41
2022/05/25 12:14:34;;;;;;;;;;;21.70;54.50;;;;;;464903;255;1174;-41
2022/05/25 12:16:35;;;;;;;;;;;21.70;54.50;;;;;;466744;255;1887;-41
2022/05/25 12:18:36;;;;;;;;;;;21.80;54.40;;;;;;465056;255;1235;-41
2022/05/25 12:20:37;;;;;;;;;;;21.70;54.50;;;;;;466718;254;1496;-41
2022/05/25 12:22:39;;;;;;;;;;;21.70;54.60;;;;;;464836;255;1183;-41
2022/05/25 12:24:40;;;;;;;;;;;21.70;54.50;;;;;;466640;254;2204;-41